This is the latest recevied weather packets stored in our database for station/object W8LMG. If no packets are shown the sender has not sent any weather packets the latest 10 day(s).
| Time | Temp. | Humidity | Pressure | Rain* | Wind** | Luminosity | Snow |
|---|---|---|---|---|---|---|---|
| 1778171885 | 14.44° C | 61% | 1011.7 hPa | 0 mm | - | 341 W/m² | - |
| 1778171583 | 15.56° C | 57% | 1011.7 hPa | 0 mm | - | 461 W/m² | - |
| 1778171279 | 15° C | 60% | 1011.9 hPa | 0 mm | - | 247 W/m² | - |
| 1778170975 | 14.44° C | 60% | 1012.1 hPa | 0 mm | - | 283 W/m² | - |
| 1778170672 | 13.89° C | 68% | 1012 hPa | 0 mm | - | 255 W/m² | - |
| 1778170369 | 13.89° C | 60% | 1012 hPa | 0 mm | - | 188 W/m² | - |
| 1778170064 | 13.33° C | 65% | 1012.1 hPa | 0 mm | - | 279 W/m² | - |
| 1778169761 | 13.33° C | 63% | 1012.3 hPa | 0 mm | - | 244 W/m² | - |
| 1778169457 | 12.78° C | 68% | 1012.4 hPa | 0 mm | - | 210 W/m² | - |
| 1778169153 | 12.78° C | 65% | 1012.5 hPa | 0 mm | - | 202 W/m² | - |
| 1778168850 | 13.33° C | 61% | 1012.4 hPa | 0 mm | - | 207 W/m² | - |
| 1778168548 | 12.78° C | 63% | 1012.6 hPa | 0 mm | - | 216 W/m² | - |
| 1778168244 | 12.22° C | 64% | 1012.3 hPa | 0 mm | - | 220 W/m² | - |
| 1778167940 | 12.78° C | 67% | 1012.6 hPa | 0 mm | - | 196 W/m² | - |
| 1778167637 | 12.22° C | 66% | 1012.7 hPa | 0 mm | - | 200 W/m² | - |
| 1778167333 | 12.78° C | 67% | 1012.7 hPa | 0 mm | - | 200 W/m² | - |
| 1778167029 | 12.22° C | 67% | 1012.7 hPa | 0 mm | - | 295 W/m² | - |
| 1778166726 | 12.22° C | 67% | 1012.6 hPa | 0 mm | - | 244 W/m² | - |
| 1778166423 | 12.22° C | 68% | 1012.6 hPa | 0 mm | - | 242 W/m² | - |
| 1778166120 | 12.22° C | 66% | 1012.7 hPa | 0 mm | - | 221 W/m² | - |
| 1778165815 | 11.67° C | 67% | 1012.7 hPa | 0 mm | - | 258 W/m² | - |
| 1778165513 | 11.67° C | 68% | 1012.9 hPa | 0 mm | - | 224 W/m² | - |
| 1778165209 | 12.78° C | 65% | 1012.8 hPa | 0 mm | - | 249 W/m² | - |
| 1778164907 | 12.22° C | 68% | 1012.7 hPa | 0 mm | - | 214 W/m² | - |
| 1778164603 | 12.78° C | 69% | 1012.7 hPa | 0 mm | - | 267 W/m² | - |
* Rain latest hour (hover to see other rain measurements)
** Current wind speed in m/s (hover to see current wind gust speed)